Accueil
METAR-TAF:

METAR-TAF

Aéroports :

Aéroport de Tarbes-Lourdes-Pyrénées

Tarbes Lourdes, France

latitude: 43-11N, longitude: 000-00W, altitude: 379 m

Observation

Le bulletin a été fait il y a 22 minutes, à 18:30 UTC
Vent 5 kt de nord/nord-est
Température 19°C
Humidité 64%
Pression 1018 hPa
Visibilité 10 km ou plus
pas de nuages en-dessous de 1500 mètres et pas de cumulonimbus.

METAR: LFBT 071830Z AUTO 03005KT CAVOK 19/12 Q1018 NOSIG

Heure: 20:52 (18:52 UTC)

Prévision

Le bulletin a été fait il y a 1 heure et 52 minutes, à 17:00 UTC
Prévision valable du 07 à 18 UTC au 08 à 18 UTC
Vent 3 kt de direction variable
Visibilité 10 km ou plus
pas de nuages en-dessous de 1500 mètres et pas de cumulonimbus.
Probabilité 30% :
Temporairement
du 08 à 17 UTC au 08 à 18 UTC
Vent 10 kt de sud

TAF: LFBT 071700Z 0718/0818 VRB03KT CAVOK PROB30 TEMPO 0817/0818 18010KT

Observations et prévisions météorologiques de plus de 4000 aéroports (messages METAR et TAF).

Les stations disponibles sont représentées par des disques jaunes et rouges sur la carte.

Passer la souris dessus pour voir le nom de la station.

Cliquer dessus pour voir les observations et prévisions météorologiques.

Pour changer de carte: cliquez sur les boutons verts avec une croix noire pour zoomer, sur le bouton vert avec un tiret pour effectuer un zoom arrière, ou sur les flèches vertes pour les cartes adjacentes.


METAR-TAF: